createdAt,value
2018-04-22T00:01:44.019Z,12.00
2018-04-22T00:04:12.169Z,12.10
2018-04-22T00:06:40.354Z,12.40
2018-04-22T00:09:08.450Z,12.20
2018-04-22T00:11:36.551Z,12.40
2018-04-22T00:14:04.662Z,12.50
2018-04-22T00:16:32.854Z,12.30
2018-04-22T00:19:00.957Z,12.10
2018-04-22T00:21:29.825Z,12.10
2018-04-22T00:23:57.910Z,12.10
2018-04-22T00:26:25.986Z,12.30
2018-04-22T00:28:54.098Z,12.20
2018-04-22T00:31:22.189Z,12.00
2018-04-22T00:33:51.061Z,11.90
2018-04-22T00:36:19.230Z,11.90
2018-04-22T00:38:47.345Z,11.80
2018-04-22T00:41:15.452Z,11.90
2018-04-22T00:43:44.335Z,12.20
2018-04-22T00:46:12.427Z,12.20
2018-04-22T00:48:41.306Z,12.50
2018-04-22T00:51:09.426Z,12.40
2018-04-22T00:53:50.292Z,12.60
2018-04-22T00:56:18.418Z,12.60
2018-04-22T00:58:46.523Z,12.40
2018-04-22T01:01:14.617Z,12.30
2018-04-22T01:03:42.734Z,12.00
2018-04-22T01:06:10.884Z,12.00
2018-04-22T01:08:39.063Z,12.00
2018-04-22T01:11:07.164Z,11.90
2018-04-22T01:13:35.252Z,11.70
2018-04-22T01:16:03.331Z,11.50
2018-04-22T01:18:31.448Z,11.40
2018-04-22T01:20:59.578Z,11.30
2018-04-22T01:23:27.679Z,11.20
2018-04-22T01:25:55.794Z,11.20
2018-04-22T01:28:23.927Z,11.20
2018-04-22T01:30:52.036Z,11.10
2018-04-22T01:33:20.128Z,11.00
2018-04-22T01:35:48.222Z,11.00
2018-04-22T01:38:16.326Z,10.90
2018-04-22T01:40:44.482Z,10.90
2018-04-22T01:43:12.603Z,10.80
2018-04-22T01:45:40.722Z,10.80
2018-04-22T01:48:08.812Z,10.90
2018-04-22T01:50:36.898Z,11.20
2018-04-22T01:53:05.036Z,11.30
2018-04-22T01:55:33.124Z,11.50
2018-04-22T01:58:01.239Z,11.50
2018-04-22T02:00:30.129Z,11.10
2018-04-22T02:02:59.002Z,10.90
2018-04-22T02:05:27.114Z,10.90
2018-04-22T02:07:55.995Z,10.70
2018-04-22T02:10:24.084Z,10.60
2018-04-22T02:12:52.210Z,10.60
2018-04-22T02:15:20.346Z,10.60
2018-04-22T02:17:48.457Z,10.60
2018-04-22T02:20:17.332Z,10.50
2018-04-22T02:22:45.440Z,10.50
2018-04-22T02:25:14.379Z,10.50
2018-04-22T02:27:42.540Z,10.50
2018-04-22T02:30:11.400Z,11.00
2018-04-22T02:32:39.559Z,10.90
2018-04-22T02:35:07.678Z,11.00
2018-04-22T02:37:35.781Z,10.90
2018-04-22T02:40:03.912Z,10.70
2018-04-22T02:42:32.791Z,10.40
2018-04-22T02:45:00.885Z,10.30
2018-04-22T02:47:29.052Z,10.30
2018-04-22T02:49:57.956Z,10.10
2018-04-22T02:52:26.846Z,10.00
2018-04-22T02:54:54.953Z,10.00
2018-04-22T02:57:23.820Z,10.00
2018-04-22T02:59:51.920Z,9.90
2018-04-22T03:02:20.036Z,10.00
2018-04-22T03:04:48.143Z,10.00
2018-04-22T03:07:16.290Z,10.00
2018-04-22T03:09:44.396Z,10.00
2018-04-22T03:12:12.557Z,10.00
2018-04-22T03:14:40.666Z,10.10
2018-04-22T03:17:08.781Z,10.10
2018-04-22T03:19:36.876Z,10.10
2018-04-22T03:22:04.985Z,10.00
2018-04-22T03:24:33.139Z,10.00
2018-04-22T03:27:01.236Z,10.00
2018-04-22T03:29:29.321Z,10.30
2018-04-22T03:31:57.409Z,10.30
2018-04-22T03:34:25.508Z,10.20
2018-04-22T03:36:53.650Z,10.10
2018-04-22T03:39:21.750Z,10.30
2018-04-22T03:41:49.895Z,10.40
2018-04-22T03:44:18.034Z,10.40
2018-04-22T03:46:46.158Z,10.30
2018-04-22T03:49:15.048Z,10.10
2018-04-22T03:51:43.880Z,10.00
2018-04-22T03:54:12.039Z,10.00
2018-04-22T03:56:40.875Z,9.80
2018-04-22T03:59:08.975Z,9.80
2018-04-22T04:01:37.079Z,9.80
2018-04-22T04:04:05.199Z,10.10
2018-04-22T04:06:34.076Z,9.80
2018-04-22T04:09:02.187Z,9.80
2018-04-22T04:11:31.060Z,9.70
2018-04-22T04:13:59.141Z,9.70
2018-04-22T04:16:27.202Z,9.80
2018-04-22T04:19:07.007Z,9.70
2018-04-22T04:21:47.015Z,9.70
2018-04-22T04:27:40.998Z,9.60
2018-04-22T04:30:09.819Z,9.60
2018-04-22T04:32:38.641Z,9.50
2018-04-22T04:35:06.696Z,9.50
2018-04-22T04:37:34.765Z,9.40
2018-04-22T04:40:02.791Z,9.40
2018-04-22T04:42:30.843Z,9.60
2018-04-22T04:44:58.901Z,9.60
2018-04-22T04:47:26.959Z,9.70
2018-04-22T04:49:55.020Z,9.80
2018-04-22T04:52:23.060Z,10.00
2018-04-22T04:54:51.124Z,10.30
2018-04-22T04:57:19.166Z,10.60
2018-04-22T04:59:47.248Z,10.90
2018-04-22T05:02:16.060Z,11.60
2018-04-22T05:04:44.121Z,11.50
2018-04-22T05:07:12.925Z,12.20
2018-04-22T05:09:41.742Z,12.50
2018-04-22T05:12:09.802Z,12.50
2018-04-22T05:14:38.631Z,13.20
2018-04-22T05:17:06.684Z,13.20
2018-04-22T05:19:34.743Z,13.60
2018-04-22T05:22:02.790Z,13.90
2018-04-22T05:24:30.849Z,14.20
2018-04-22T05:26:59.673Z,14.70
2018-04-22T05:29:27.728Z,14.70
2018-04-22T05:31:56.555Z,16.00
2018-04-22T05:34:24.615Z,16.00
2018-04-22T05:36:53.432Z,16.60
2018-04-22T05:39:21.484Z,16.60
2018-04-22T05:41:49.578Z,16.90
2018-04-22T05:44:17.590Z,17.40
2018-04-22T05:46:45.638Z,17.60
2018-04-22T05:49:13.694Z,17.90
2018-04-22T05:51:41.745Z,18.30
2018-04-22T05:54:09.795Z,18.60
2018-04-22T05:56:38.617Z,19.10
2018-04-22T05:59:06.675Z,19.10
2018-04-22T06:01:34.752Z,19.50
2018-04-22T06:04:02.800Z,19.40
2018-04-22T06:06:30.846Z,19.50
2018-04-22T06:08:59.674Z,19.90
2018-04-22T06:11:27.724Z,19.90
2018-04-22T06:13:56.532Z,20.00
2018-04-22T06:16:25.363Z,20.70
2018-04-22T06:18:53.418Z,20.60
2018-04-22T06:21:22.248Z,21.10
2018-04-22T06:23:50.294Z,21.00
2018-04-22T06:26:19.141Z,21.00
2018-04-22T06:28:47.202Z,21.00
2018-04-22T06:31:15.252Z,21.60
2018-04-22T06:33:43.291Z,21.90
2018-04-22T06:36:11.363Z,22.50
2018-04-22T06:38:39.409Z,24.40
2018-04-22T06:41:07.462Z,24.10
2018-04-22T06:43:35.508Z,23.50
2018-04-22T06:46:03.578Z,23.80
2018-04-22T06:48:32.395Z,23.20
2018-04-22T06:51:00.467Z,23.20
2018-04-22T06:53:28.568Z,22.90
2018-04-22T06:55:56.565Z,23.00
2018-04-22T06:58:24.618Z,24.30
2018-04-22T07:00:52.675Z,24.60
2018-04-22T07:03:20.722Z,24.50
2018-04-22T07:05:48.780Z,24.80
2018-04-22T07:08:16.865Z,25.50
2018-04-22T07:10:44.874Z,25.20
2018-04-22T07:13:12.920Z,25.00
2018-04-22T07:15:41.718Z,26.50
2018-04-22T07:18:09.771Z,26.40
2018-04-22T07:20:37.811Z,26.60
2018-04-22T07:23:05.868Z,27.60
2018-04-22T07:25:34.657Z,27.20
2018-04-22T07:28:03.482Z,27.20
2018-04-22T07:30:31.528Z,27.10
2018-04-22T07:32:59.575Z,28.30
2018-04-22T07:38:02.022Z,28.30
2018-04-22T07:40:30.055Z,28.30
2018-04-22T07:42:58.097Z,29.00
2018-04-22T07:45:26.142Z,29.50
2018-04-22T07:47:54.201Z,29.20
2018-04-22T07:50:22.245Z,29.00
2018-04-22T07:52:50.307Z,29.20
2018-04-22T07:55:18.371Z,29.10
2018-04-22T07:57:46.423Z,28.30
2018-04-22T08:00:15.236Z,28.80
2018-04-22T08:02:44.050Z,29.30
2018-04-22T08:05:12.088Z,29.30
2018-04-22T08:07:40.127Z,28.10
2018-04-22T08:10:08.178Z,28.40
2018-04-22T08:12:36.992Z,28.60
2018-04-22T08:15:05.031Z,28.50
2018-04-22T08:17:33.082Z,28.60
2018-04-22T08:20:01.155Z,29.10
2018-04-22T08:22:29.204Z,29.10
2018-04-22T08:24:58.022Z,31.00
2018-04-22T08:27:26.835Z,30.40
2018-04-22T08:29:54.878Z,30.30
2018-04-22T08:32:22.920Z,30.60
2018-04-22T08:34:50.964Z,30.80
2018-04-22T08:37:19.786Z,30.20
2018-04-22T08:39:47.855Z,30.20
2018-04-22T08:42:16.710Z,30.20
2018-04-22T08:44:44.753Z,30.20
2018-04-22T08:47:12.788Z,29.70
2018-04-22T08:49:40.847Z,30.10
2018-04-22T08:52:08.902Z,29.90
2018-04-22T08:54:36.948Z,30.50
2018-04-22T08:57:05.046Z,30.80
2018-04-22T08:59:33.093Z,30.00
2018-04-22T09:02:01.162Z,30.70
2018-04-22T09:04:29.207Z,31.90
2018-04-22T09:06:58.010Z,31.10
2018-04-22T09:09:26.838Z,30.50
2018-04-22T09:11:54.874Z,30.50
2018-04-22T09:14:22.912Z,31.50
2018-04-22T09:16:50.983Z,31.50
2018-04-22T09:19:19.052Z,33.30
2018-04-22T09:21:47.857Z,33.10
2018-04-22T09:24:16.670Z,32.00
2018-04-22T09:26:44.718Z,32.00
2018-04-22T09:29:12.808Z,30.70
2018-04-22T09:31:40.878Z,30.80
2018-04-22T09:34:08.956Z,31.80
2018-04-22T09:36:37.065Z,31.20
2018-04-22T09:39:05.915Z,31.90
2018-04-22T09:41:34.009Z,31.90
2018-04-22T09:44:02.095Z,32.90
2018-04-22T09:46:30.229Z,32.10
2018-04-22T09:48:59.067Z,32.20
2018-04-22T09:51:27.165Z,32.20
2018-04-22T09:53:55.258Z,32.70
2018-04-22T09:56:23.331Z,32.60
2018-04-22T09:58:51.413Z,30.90
2018-04-22T10:01:19.486Z,32.40
2018-04-22T10:03:47.584Z,32.30
2018-04-22T10:06:15.664Z,32.70
2018-04-22T10:08:43.722Z,33.00
2018-04-22T10:13:41.173Z,30.70
2018-04-22T10:16:10.825Z,30.10
2018-04-22T10:18:39.695Z,29.90
2018-04-22T10:21:07.800Z,29.90
2018-04-22T10:23:35.954Z,31.10
2018-04-22T10:26:04.088Z,30.70
2018-04-22T10:28:32.943Z,29.20
2018-04-22T10:31:01.053Z,29.20
2018-04-22T10:33:29.167Z,29.60
2018-04-22T10:35:58.040Z,29.70
2018-04-22T10:38:26.115Z,29.60
2018-04-22T10:40:54.457Z,30.90
2018-04-22T10:43:22.540Z,29.20
2018-04-22T10:45:50.643Z,28.80
2018-04-22T10:48:18.737Z,30.00
2018-04-22T10:50:46.820Z,30.00
2018-04-22T10:53:14.889Z,29.90
2018-04-22T10:55:42.960Z,31.00
2018-04-22T10:58:11.026Z,31.30
2018-04-22T11:00:39.861Z,30.90
2018-04-22T11:03:07.963Z,29.50
2018-04-22T11:05:36.103Z,27.90
2018-04-22T11:08:04.946Z,30.40
2018-04-22T11:10:33.017Z,30.40
2018-04-22T11:13:01.130Z,32.20
2018-04-22T11:15:29.206Z,32.20
2018-04-22T11:17:57.306Z,32.10
2018-04-22T11:20:25.362Z,31.80
2018-04-22T11:22:53.440Z,31.90
2018-04-22T11:25:21.529Z,31.80
2018-04-22T11:27:49.608Z,32.70
2018-04-22T11:30:17.713Z,31.60
2018-04-22T11:32:45.810Z,30.30
2018-04-22T11:35:13.915Z,30.90
2018-04-22T11:37:42.019Z,31.20
2018-04-22T11:40:10.862Z,30.10
2018-04-22T11:42:38.948Z,30.10
2018-04-22T11:45:07.020Z,30.60
2018-04-22T11:47:35.098Z,31.90
2018-04-22T11:50:03.174Z,31.30
2018-04-22T11:52:31.254Z,30.10
2018-04-22T11:54:59.347Z,30.00
2018-04-22T11:57:27.431Z,31.40
2018-04-22T11:59:55.554Z,32.20
2018-04-22T12:02:23.619Z,30.90
2018-04-22T12:04:51.687Z,31.20
2018-04-22T12:07:19.772Z,31.60
2018-04-22T12:09:47.867Z,32.00
2018-04-22T12:12:15.930Z,32.80
2018-04-22T12:14:44.037Z,33.80
2018-04-22T12:17:12.847Z,32.80
2018-04-22T12:19:40.914Z,32.80
2018-04-22T12:22:09.028Z,33.60
2018-04-22T12:24:37.144Z,34.20
2018-04-22T12:27:05.286Z,33.30
2018-04-22T12:29:33.343Z,32.00
2018-04-22T12:32:01.415Z,33.00
2018-04-22T12:34:29.507Z,32.60
2018-04-22T12:36:57.591Z,32.20
2018-04-22T12:39:25.728Z,33.20
2018-04-22T12:41:53.794Z,33.70
2018-04-22T12:44:21.903Z,32.80
2018-04-22T12:46:50.001Z,31.90
2018-04-22T12:49:18.092Z,33.20
2018-04-22T12:51:46.153Z,33.80
2018-04-22T12:54:14.234Z,33.90
2018-04-22T12:56:42.336Z,32.80
2018-04-22T12:59:10.430Z,33.40
2018-04-22T13:01:39.329Z,33.90
2018-04-22T13:04:07.415Z,33.90
2018-04-22T13:06:35.496Z,35.20
2018-04-22T13:09:06.026Z,34.20
2018-04-22T13:11:34.128Z,34.20
2018-04-22T13:14:03.006Z,33.40
2018-04-22T13:16:31.111Z,33.40
2018-04-22T13:18:59.187Z,33.20
2018-04-22T13:21:27.272Z,33.90
2018-04-22T13:23:55.365Z,33.30
2018-04-22T13:26:23.460Z,33.10
2018-04-22T13:28:52.315Z,31.90
2018-04-22T13:31:20.667Z,31.80
2018-04-22T13:33:48.757Z,30.80
2018-04-22T13:36:16.864Z,30.00
2018-04-22T13:38:44.959Z,29.50
2018-04-22T13:41:13.042Z,29.80
2018-04-22T13:43:41.195Z,29.50
2018-04-22T13:46:09.341Z,29.00
2018-04-22T13:48:38.232Z,28.20
2018-04-22T13:51:06.296Z,28.20
2018-04-22T13:53:34.389Z,27.90
2018-04-22T13:56:02.539Z,27.80
2018-04-22T13:58:31.364Z,28.00
2018-04-22T14:00:59.467Z,27.90
2018-04-22T14:03:27.576Z,28.60
2018-04-22T14:05:55.675Z,28.90
2018-04-22T14:08:24.500Z,30.40
2018-04-22T14:10:52.592Z,30.30
2018-04-22T14:13:20.675Z,30.30
2018-04-22T14:15:48.730Z,31.00
2018-04-22T14:18:17.608Z,30.90
2018-04-22T14:20:45.726Z,30.90
2018-04-22T14:23:14.579Z,30.70
2018-04-22T14:25:42.679Z,30.60
2018-04-22T14:28:10.750Z,30.70
2018-04-22T14:30:38.855Z,29.80
2018-04-22T14:33:06.958Z,29.80
2018-04-22T14:35:35.822Z,29.20
2018-04-22T14:38:03.960Z,29.20
2018-04-22T14:40:32.075Z,29.00
2018-04-22T14:43:00.181Z,28.70
2018-04-22T14:45:53.935Z,28.20
2018-04-22T14:48:22.008Z,27.90
2018-04-22T14:50:50.079Z,28.10
2018-04-22T14:53:18.911Z,29.00
2018-04-22T14:55:46.983Z,29.00
2018-04-22T14:58:15.083Z,28.90
2018-04-22T15:00:43.183Z,28.90
2018-04-22T15:03:11.278Z,28.80
2018-04-22T15:05:39.460Z,28.30
2018-04-22T15:08:07.573Z,28.10
2018-04-22T15:10:35.670Z,27.60
2018-04-22T15:40:26.705Z,27.00
2018-04-22T15:42:54.820Z,26.90
2018-04-22T15:45:22.896Z,26.80
2018-04-22T15:47:51.736Z,26.60
2018-04-22T15:50:19.845Z,26.60
2018-04-22T15:52:47.919Z,26.40
2018-04-22T15:55:16.010Z,26.30
2018-04-22T15:57:44.091Z,26.50
2018-04-22T16:00:12.188Z,26.60
2018-04-22T16:02:40.302Z,26.60
2018-04-22T16:05:08.394Z,26.70
2018-04-22T16:07:37.247Z,26.90
2018-04-22T16:10:05.323Z,26.80
2018-04-22T16:12:33.399Z,27.00
2018-04-22T16:15:01.494Z,27.00
2018-04-22T16:17:29.653Z,27.10
2018-04-22T16:19:57.749Z,27.20
2018-04-22T16:22:25.890Z,27.20
2018-04-22T16:24:53.987Z,27.00
2018-04-22T16:27:22.124Z,26.80
2018-04-22T16:29:50.201Z,26.60
2018-04-22T16:32:18.277Z,26.70
2018-04-22T16:34:46.339Z,26.60
2018-04-22T16:37:14.441Z,26.50
2018-04-22T16:39:42.537Z,26.40
2018-04-22T16:42:10.636Z,26.40
2018-04-22T16:44:38.770Z,26.40
2018-04-22T16:47:06.863Z,26.30
2018-04-22T16:49:34.994Z,26.20
2018-04-22T16:52:03.079Z,26.20
2018-04-22T16:54:31.184Z,26.10
2018-04-22T16:56:59.276Z,26.20
2018-04-22T16:59:28.106Z,26.10
2018-04-22T17:01:56.522Z,26.10
2018-04-22T17:04:24.611Z,26.20
2018-04-22T17:06:52.718Z,26.10
2018-04-22T17:09:20.810Z,25.90
2018-04-22T17:11:48.985Z,25.90
2018-04-22T17:14:17.096Z,25.70
2018-04-22T17:16:45.956Z,25.50
2018-04-22T17:19:14.077Z,25.40
2018-04-22T17:21:42.233Z,25.30
2018-04-22T17:24:10.358Z,25.10
2018-04-22T17:26:38.422Z,24.90
2018-04-22T17:29:06.536Z,24.80
2018-04-22T17:31:35.397Z,24.70
2018-04-22T17:34:03.490Z,24.70
2018-04-22T17:36:32.361Z,24.50
2018-04-22T17:39:00.443Z,24.50
2018-04-22T17:41:28.592Z,24.40
2018-04-22T17:43:56.680Z,24.30
2018-04-22T17:46:25.542Z,24.20
2018-04-22T17:48:53.620Z,24.20
2018-04-22T17:51:21.722Z,24.10
2018-04-22T17:53:49.812Z,24.10
2018-04-22T17:56:17.929Z,24.10
2018-04-22T17:58:46.785Z,24.20
2018-04-22T18:01:14.879Z,24.10
2018-04-22T18:03:43.035Z,24.10
2018-04-22T18:06:11.130Z,24.00
2018-04-22T18:08:39.256Z,23.90
2018-04-22T18:11:08.155Z,23.80
2018-04-22T18:13:37.000Z,23.60
2018-04-22T18:16:05.188Z,23.60
2018-04-22T18:18:33.296Z,23.50
2018-04-22T18:21:01.416Z,23.40
2018-04-22T18:23:30.286Z,23.20
2018-04-22T18:25:58.408Z,23.10
2018-04-22T18:28:26.555Z,23.10
2018-04-22T18:30:54.659Z,23.10
2018-04-22T18:33:22.764Z,22.90
2018-04-22T18:35:50.942Z,22.70
2018-04-22T18:38:19.052Z,22.60
2018-04-22T18:40:47.923Z,22.40
2018-04-22T18:43:16.032Z,22.30
2018-04-22T18:45:44.895Z,22.20
2018-04-22T18:48:13.078Z,22.20
2018-04-22T18:50:41.197Z,22.20
2018-04-22T18:53:09.284Z,22.00
2018-04-22T18:55:38.203Z,22.00
2018-04-22T18:58:07.077Z,21.90
2018-04-22T19:00:35.180Z,21.90
2018-04-22T19:03:04.029Z,21.70
2018-04-22T19:05:32.177Z,21.70
2018-04-22T19:08:01.033Z,21.50
2018-04-22T19:10:29.129Z,21.50
2018-04-22T19:12:57.228Z,21.20
2018-04-22T19:15:25.300Z,21.00
2018-04-22T19:17:53.394Z,20.90
2018-04-22T19:20:21.481Z,20.80
2018-04-22T19:22:49.597Z,20.80
2018-04-22T19:25:17.685Z,20.80
2018-04-22T19:27:45.796Z,20.90
2018-04-22T19:30:13.891Z,21.00
2018-04-22T19:32:41.994Z,21.00
2018-04-22T19:35:10.082Z,21.10
2018-04-22T19:37:38.171Z,21.10
2018-04-22T19:40:06.267Z,21.10
2018-04-22T19:42:35.168Z,21.00
2018-04-22T19:45:03.257Z,20.90
2018-04-22T19:47:32.116Z,20.70
2018-04-22T19:50:00.216Z,20.70
2018-04-22T19:52:28.371Z,20.70
2018-04-22T19:54:56.454Z,20.80
2018-04-22T19:57:24.540Z,20.70
2018-04-22T19:59:52.648Z,20.70
2018-04-22T20:02:20.760Z,20.60
2018-04-22T20:04:48.860Z,20.00
2018-04-22T20:07:16.994Z,19.60
2018-04-22T20:09:45.087Z,19.20
2018-04-22T20:12:13.258Z,18.80
2018-04-22T20:14:41.341Z,18.60
2018-04-22T20:17:09.441Z,18.40
2018-04-22T20:19:37.539Z,18.30
2018-04-22T20:22:05.692Z,18.10
2018-04-22T20:24:33.795Z,18.40
2018-04-22T20:27:01.902Z,18.50
2018-04-22T20:29:29.970Z,18.80
2018-04-22T20:31:58.090Z,18.70
2018-04-22T20:34:26.938Z,18.40
2018-04-22T20:36:55.036Z,18.40
2018-04-22T20:39:23.473Z,18.30
2018-04-22T20:41:52.845Z,18.20
2018-04-22T20:44:21.385Z,18.30
2018-04-22T20:46:50.903Z,18.30
2018-04-22T20:49:19.946Z,18.20
2018-04-22T20:51:48.405Z,18.20
2018-04-22T20:54:17.757Z,18.00
2018-04-22T20:56:46.005Z,18.00
2018-04-22T20:59:14.503Z,18.00
2018-04-22T21:01:42.944Z,17.90
2018-04-22T21:04:11.523Z,17.90
2018-04-22T21:06:40.187Z,17.90
2018-04-22T21:09:09.397Z,18.00
2018-04-22T21:11:37.838Z,17.90
2018-04-22T21:14:06.342Z,18.00
2018-04-22T21:16:35.271Z,18.10
2018-04-22T21:19:03.351Z,18.10
2018-04-22T21:21:31.483Z,18.10
2018-04-22T21:23:59.628Z,18.20
2018-04-22T21:26:27.847Z,18.20
2018-04-22T21:28:56.731Z,18.20
2018-04-22T21:31:24.844Z,18.10
2018-04-22T21:33:53.001Z,18.10
2018-04-22T21:36:21.062Z,18.00
2018-04-22T21:38:49.179Z,18.00
2018-04-22T21:41:18.018Z,18.00
2018-04-22T21:43:46.118Z,17.90
2018-04-22T21:46:14.203Z,17.90
2018-04-22T21:48:42.301Z,17.90
2018-04-22T21:51:10.394Z,17.90
2018-04-22T21:53:38.487Z,17.80
2018-04-22T21:56:06.577Z,17.80
2018-04-22T21:58:34.674Z,17.80
2018-04-22T22:01:03.536Z,18.10
2018-04-22T22:03:31.691Z,18.10
2018-04-22T22:05:59.815Z,18.20
2018-04-22T22:08:28.038Z,18.30
2018-04-22T22:10:56.887Z,18.30
2018-04-22T22:13:25.011Z,18.30
2018-04-22T22:15:53.111Z,18.10
2018-04-22T22:18:21.202Z,18.00
2018-04-22T22:20:50.103Z,17.70
2018-04-22T22:23:18.951Z,17.60
2018-04-22T22:25:47.053Z,17.50
2018-04-22T22:28:15.118Z,17.60
2018-04-22T22:30:43.232Z,17.50
2018-04-22T22:33:11.313Z,17.40
2018-04-22T22:35:39.423Z,17.50
2018-04-22T22:38:08.278Z,17.40
2018-04-22T22:40:36.521Z,17.40
2018-04-22T22:43:04.724Z,17.40
2018-04-22T22:45:32.820Z,17.40
2018-04-22T22:48:00.939Z,17.40
2018-04-22T22:50:29.048Z,17.40
2018-04-22T22:52:57.909Z,17.40
2018-04-22T22:55:25.990Z,17.30
2018-04-22T22:57:54.127Z,17.40
2018-04-22T23:00:22.995Z,17.40
2018-04-22T23:02:51.141Z,17.40
2018-04-22T23:05:19.193Z,17.40
2018-04-22T23:07:47.276Z,17.50
2018-04-22T23:10:16.137Z,17.50
2018-04-22T23:12:44.229Z,17.50
2018-04-22T23:15:12.320Z,17.50
2018-04-22T23:17:40.409Z,17.50
2018-04-22T23:20:08.524Z,17.50
2018-04-22T23:22:37.388Z,17.50
2018-04-22T23:25:05.478Z,17.50
2018-04-22T23:27:33.583Z,17.50
2018-04-22T23:30:01.679Z,17.50
2018-04-22T23:32:30.679Z,17.50
2018-04-22T23:34:58.714Z,17.60
2018-04-22T23:37:26.819Z,17.60
2018-04-22T23:39:54.940Z,17.50
2018-04-22T23:42:23.787Z,17.50
2018-04-22T23:44:51.885Z,17.50
2018-04-22T23:47:19.987Z,17.40
2018-04-22T23:49:48.092Z,17.40
2018-04-22T23:52:16.936Z,17.30
2018-04-22T23:54:45.029Z,17.30
2018-04-22T23:57:13.130Z,17.30
2018-04-22T23:59:41.244Z,17.20
